Araxos, Greece

2:25 AM EEST on March 29, 2017 (GMT +0300)
Patra, Harbour, Greece | | Change Station

Elev 0 ft 38.23 °N, 21.72 °E | Updated 6 minutes ago

Clear
Clear
55.3 °F
Feels Like 55.3 °F
N
2.0
Wind Variable Wind from ENE
Gusts 2.0 mph

Today
High -- | Low -- °F
--% Chance of Precip.
Yesterday
High -- | Low -- °F
Precip. -- in
Pressure 30.06 in
Visibility 6.2 miles
Clouds Few 2500 ft
Dew Point 36 °F
Humidity 48%
Rainfall 0.00 in
Snow Depth Not available.
7:24 AM 7:54 PM
New Moon, 1% visible
METAR LGAD 282250Z 00000KT 9999 FEW025 08/04 Q1018
Pressure 30.06 in
Visibility 6.2 miles
Clouds Few 2500 ft
Dew Point 36 °F
Humidity 48%
Rainfall 0.00 in
Snow Depth Not available.
7:24 AM 7:54 PM
New Moon, 1% visible
METAR LGAD 282250Z 00000KT 9999 FEW025 08/04 Q1018

Get Severe Weather Alerts

Thanks for signing up!

Be on the lookout for a verification email in your inbox.

You'll start receiving the daily forecast at 8 AM.

×

10-Day Weather Forecast

×

Almanac

Astronomy

Mar. 29, 2017 Rise Set
Actual Time
Civil Twilight
Nautical Twilight
Astronomical Twilight
Moon
Length of Visible Light
Length of Day
Tomorrow will be .
, % of the Moon is Illuminated

Today's Extremes

Country Highs Country Lows

Community

WunderPhotos

Upload Photos

1,962,540 photos uploaded!

WunderBlog® & News

Nearby

Air Quality

  Air Quality AQ Index Pollutant
Not available.

Snow Depth

Station Depth Elevation

Earthquake Activity

City Distance Mag. Time & Date
Minimum magnitude displayed is 2.5.

Earthquake Activity

City Distance Mag. Time & Date
Minimum magnitude displayed is 2.5.

Coastal Water Temperatures

Place Temperature

Stations

Nearby Weather Stations

Station Location Temp. Windchill Dew Point Humidity Wind Precip. Elev Updated Type